createdAt,value
2024-01-20T00:02:25.233Z,73.57
2024-01-20T00:04:52.482Z,73.49
2024-01-20T00:07:20.630Z,73.20
2024-01-20T00:09:51.184Z,73.83
2024-01-20T00:12:19.049Z,73.39
2024-01-20T00:14:46.140Z,73.42
2024-01-20T00:17:21.160Z,73.74
2024-01-20T00:19:54.229Z,73.43
2024-01-20T00:22:22.097Z,73.97
2024-01-20T00:24:49.022Z,73.76
2024-01-20T00:27:16.141Z,74.10
2024-01-20T00:29:42.853Z,74.00
2024-01-20T00:32:09.898Z,74.04
2024-01-20T00:34:50.600Z,73.92
2024-01-20T00:37:23.739Z,73.95
2024-01-20T00:39:50.240Z,74.57
2024-01-20T00:42:16.873Z,74.94
2024-01-20T00:44:43.797Z,74.24
2024-01-20T00:47:10.540Z,74.51
2024-01-20T00:49:37.368Z,74.39
2024-01-20T00:52:04.225Z,74.35
2024-01-20T00:54:30.771Z,75.10
2024-01-20T00:56:57.225Z,74.95
2024-01-20T00:59:23.947Z,74.80
2024-01-20T01:01:50.640Z,75.28
2024-01-20T01:04:17.527Z,74.91
2024-01-20T01:06:44.190Z,74.44
2024-01-20T01:09:11.018Z,74.64
2024-01-20T01:11:37.544Z,74.65
2024-01-20T01:14:04.168Z,74.84
2024-01-20T01:16:30.747Z,75.34
2024-01-20T01:18:57.959Z,74.95
2024-01-20T01:21:24.807Z,74.96
2024-01-20T01:23:51.297Z,74.64
2024-01-20T01:26:18.809Z,74.71
2024-01-20T01:28:45.636Z,74.64
2024-01-20T01:31:12.576Z,74.67
2024-01-20T01:33:39.360Z,74.85
2024-01-20T01:36:06.626Z,74.95
2024-01-20T01:38:33.460Z,75.48
2024-01-20T01:41:00.364Z,75.49
2024-01-20T01:43:27.014Z,74.89
2024-01-20T01:45:53.644Z,75.22
2024-01-20T01:48:22.041Z,75.85
2024-01-20T01:50:50.083Z,75.48
2024-01-20T01:53:16.834Z,75.63
2024-01-20T01:55:44.968Z,75.63
2024-01-20T01:58:11.602Z,75.51
2024-01-20T02:00:38.519Z,75.18
2024-01-20T02:03:05.721Z,75.15
2024-01-20T02:05:32.450Z,75.49
2024-01-20T02:07:59.902Z,75.22
2024-01-20T02:10:26.540Z,75.25
2024-01-20T02:12:53.608Z,74.96
2024-01-20T02:15:20.282Z,74.44
2024-01-20T02:17:54.913Z,74.87
2024-01-20T02:20:21.524Z,74.24
2024-01-20T02:22:48.185Z,74.72
2024-01-20T02:25:14.759Z,74.38
2024-01-20T02:27:41.477Z,74.20
2024-01-20T02:30:08.565Z,74.21
2024-01-20T02:32:35.309Z,74.27
2024-01-20T02:35:01.894Z,74.04
2024-01-20T02:37:28.458Z,74.42
2024-01-20T02:39:54.981Z,74.37
2024-01-20T02:42:21.635Z,74.31
2024-01-20T02:44:48.282Z,74.38
2024-01-20T02:47:15.214Z,74.47
2024-01-20T02:49:41.939Z,74.93
2024-01-20T02:52:08.631Z,74.79
2024-01-20T02:54:35.203Z,74.79
2024-01-20T02:57:01.883Z,74.79
2024-01-20T02:59:28.697Z,74.74
2024-01-20T03:01:55.200Z,74.92
2024-01-20T03:04:21.936Z,74.84
2024-01-20T03:06:48.541Z,74.60
2024-01-20T03:09:16.081Z,74.92
2024-01-20T03:11:45.709Z,75.22
2024-01-20T03:14:12.743Z,75.39
2024-01-20T03:16:39.710Z,75.71
2024-01-20T03:19:07.641Z,75.47
2024-01-20T03:21:35.348Z,75.80
2024-01-20T03:24:02.088Z,75.63
2024-01-20T03:26:28.962Z,75.49
2024-01-20T03:28:55.583Z,75.69
2024-01-20T03:31:22.161Z,74.73
2024-01-20T03:33:48.772Z,74.86
2024-01-20T03:36:15.354Z,74.83
2024-01-20T03:38:41.897Z,74.71
2024-01-20T03:41:08.470Z,74.37
2024-01-20T03:43:34.956Z,74.69
2024-01-20T03:46:01.539Z,74.56
2024-01-20T03:48:28.211Z,74.04
2024-01-20T03:50:54.856Z,73.27
2024-01-20T03:53:21.555Z,73.50
2024-01-20T03:55:48.014Z,73.44
2024-01-20T03:58:14.513Z,73.65
2024-01-20T04:00:41.105Z,73.53
2024-01-20T04:03:07.835Z,73.58
2024-01-20T04:05:34.406Z,73.52
2024-01-20T04:08:00.930Z,73.83
2024-01-20T04:10:27.515Z,73.84
2024-01-20T04:12:54.012Z,73.92
2024-01-20T04:15:20.617Z,74.01
2024-01-20T04:17:47.260Z,74.58
2024-01-20T04:20:13.958Z,74.60
2024-01-20T04:22:40.522Z,74.82
2024-01-20T04:25:07.765Z,75.18
2024-01-20T04:27:41.210Z,75.46
2024-01-20T04:30:12.623Z,75.42
2024-01-20T04:32:39.205Z,75.57
2024-01-20T04:35:06.950Z,75.51
2024-01-20T04:37:33.616Z,75.47
2024-01-20T04:40:01.417Z,75.34
2024-01-20T04:42:28.028Z,75.28
2024-01-20T04:44:54.626Z,75.36
2024-01-20T04:47:21.188Z,75.02
2024-01-20T04:49:49.832Z,75.61
2024-01-20T04:52:16.396Z,75.22
2024-01-20T04:54:42.933Z,75.62
2024-01-20T04:57:10.359Z,75.74
2024-01-20T04:59:36.893Z,75.86
2024-01-20T05:02:03.734Z,75.96
2024-01-20T05:04:30.327Z,75.81
2024-01-20T05:06:56.986Z,75.92
2024-01-20T05:09:23.638Z,76.14
2024-01-20T05:11:50.169Z,76.58
2024-01-20T05:14:16.857Z,76.48
2024-01-20T05:16:43.325Z,76.99
2024-01-20T05:19:10.129Z,76.89
2024-01-20T05:21:38.850Z,77.02
2024-01-20T05:24:06.364Z,77.15
2024-01-20T05:26:33.792Z,77.29
2024-01-20T05:29:00.937Z,77.39
2024-01-20T05:31:32.707Z,77.16
2024-01-20T05:34:00.028Z,77.07
2024-01-20T05:36:26.893Z,76.70
2024-01-20T05:38:53.476Z,77.06
2024-01-20T05:41:20.126Z,77.38
2024-01-20T05:43:46.642Z,76.95
2024-01-20T05:46:13.104Z,77.43
2024-01-20T05:48:39.794Z,77.54
2024-01-20T05:51:06.881Z,76.99
2024-01-20T05:53:33.557Z,77.34
2024-01-20T05:56:00.117Z,77.42
2024-01-20T05:58:26.670Z,77.34
2024-01-20T06:00:53.320Z,77.24
2024-01-20T06:03:20.006Z,77.30
2024-01-20T06:05:46.815Z,77.04
2024-01-20T06:08:13.351Z,77.23
2024-01-20T06:10:40.471Z,77.57
2024-01-20T06:13:07.170Z,77.61
2024-01-20T06:15:33.876Z,77.07
2024-01-20T06:18:00.527Z,77.29
2024-01-20T06:20:27.527Z,77.21
2024-01-20T06:22:54.111Z,77.17
2024-01-20T06:25:20.687Z,76.75
2024-01-20T06:27:47.587Z,76.18
2024-01-20T06:30:14.440Z,76.14
2024-01-20T06:32:41.056Z,75.96
2024-01-20T06:35:08.636Z,76.02
2024-01-20T06:37:35.649Z,76.05
2024-01-20T06:40:02.278Z,75.53
2024-01-20T06:42:28.825Z,75.46
2024-01-20T06:44:57.225Z,75.71
2024-01-20T06:47:24.883Z,75.05
2024-01-20T06:49:51.593Z,75.44
2024-01-20T06:52:18.138Z,75.04
2024-01-20T06:54:44.763Z,74.82
2024-01-20T06:57:11.436Z,75.12
2024-01-20T06:59:38.445Z,74.52
2024-01-20T07:02:05.270Z,74.62
2024-01-20T07:04:32.380Z,73.60
2024-01-20T07:06:59.087Z,73.54
2024-01-20T07:09:26.688Z,73.85
2024-01-20T07:11:56.548Z,73.20
2024-01-20T07:14:24.847Z,73.20
2024-01-20T07:16:51.722Z,73.55
2024-01-20T07:19:18.444Z,73.23
2024-01-20T07:21:45.009Z,73.14
2024-01-20T07:24:11.595Z,72.64
2024-01-20T07:26:38.191Z,72.51
2024-01-20T07:29:04.753Z,72.67
2024-01-20T07:31:31.300Z,73.04
2024-01-20T07:33:57.945Z,73.07
2024-01-20T07:36:24.551Z,72.94
2024-01-20T07:38:51.093Z,72.96
2024-01-20T07:41:17.560Z,73.57
2024-01-20T07:43:45.251Z,73.27
2024-01-20T07:46:12.294Z,73.80
2024-01-20T07:48:38.821Z,73.60
2024-01-20T07:51:05.568Z,73.43
2024-01-20T07:53:32.042Z,73.94
2024-01-20T07:55:58.927Z,73.50
2024-01-20T07:58:25.735Z,73.46
2024-01-20T08:00:52.471Z,73.79
2024-01-20T08:03:19.097Z,73.14
2024-01-20T08:05:47.061Z,73.32
2024-01-20T08:08:13.987Z,73.33
2024-01-20T08:10:40.725Z,72.99
2024-01-20T08:13:07.330Z,73.00
2024-01-20T08:15:36.694Z,72.71
2024-01-20T08:18:03.593Z,72.32
2024-01-20T08:20:30.364Z,72.35
2024-01-20T08:22:57.729Z,71.67
2024-01-20T08:25:24.361Z,72.24
2024-01-20T08:27:50.952Z,71.94
2024-01-20T08:30:17.650Z,71.52
2024-01-20T08:32:44.292Z,71.68
2024-01-20T08:35:11.829Z,71.64
2024-01-20T08:37:38.508Z,71.47
2024-01-20T08:40:05.470Z,71.18
2024-01-20T08:42:32.102Z,71.51
2024-01-20T08:44:58.727Z,71.03
2024-01-20T08:47:25.298Z,71.10
2024-01-20T08:49:53.241Z,70.74
2024-01-20T08:52:20.289Z,70.31
2024-01-20T08:54:48.136Z,70.10
2024-01-20T08:57:15.138Z,70.44
2024-01-20T08:59:41.740Z,69.30
2024-01-20T09:02:08.822Z,69.07
2024-01-20T09:04:36.013Z,69.55
2024-01-20T09:07:03.146Z,68.67
2024-01-20T09:09:29.810Z,68.33
2024-01-20T09:11:56.540Z,68.21
2024-01-20T09:14:23.100Z,67.62
2024-01-20T09:16:49.793Z,67.68
2024-01-20T09:19:17.105Z,67.30
2024-01-20T09:21:47.815Z,66.64
2024-01-20T09:24:14.928Z,66.56
2024-01-20T09:26:41.672Z,66.28
2024-01-20T09:29:08.209Z,66.67
2024-01-20T09:31:34.830Z,66.93
2024-01-20T09:34:01.413Z,65.43
2024-01-20T09:36:29.052Z,65.60
2024-01-20T09:38:55.669Z,65.52
2024-01-20T09:41:22.611Z,65.08
2024-01-20T09:43:49.415Z,65.94
2024-01-20T09:46:16.533Z,65.60
2024-01-20T09:48:44.586Z,64.99
2024-01-20T09:51:11.929Z,64.71
2024-01-20T09:53:39.979Z,65.20
2024-01-20T09:56:07.088Z,65.00
2024-01-20T09:58:36.451Z,64.21
2024-01-20T10:01:04.250Z,64.54
2024-01-20T10:03:35.944Z,64.54
2024-01-20T10:06:02.693Z,63.98
2024-01-20T10:08:29.195Z,63.42
2024-01-20T10:11:05.692Z,62.96
2024-01-20T10:13:32.538Z,62.55
2024-01-20T10:15:59.323Z,62.38
2024-01-20T10:18:26.110Z,63.02
2024-01-20T10:21:03.667Z,62.72
2024-01-20T10:23:30.584Z,62.34
2024-01-20T10:26:01.361Z,62.67
2024-01-20T10:28:27.899Z,62.39
2024-01-20T10:30:54.859Z,62.27
2024-01-20T10:33:21.626Z,62.14
2024-01-20T10:35:48.256Z,62.06
2024-01-20T10:38:15.679Z,61.53
2024-01-20T10:40:44.370Z,61.69
2024-01-20T10:43:16.080Z,61.09
2024-01-20T10:45:53.237Z,60.62
2024-01-20T10:48:22.605Z,60.71
2024-01-20T10:50:59.334Z,60.11
2024-01-20T10:53:29.298Z,59.86
2024-01-20T10:55:56.249Z,59.92
2024-01-20T10:58:28.885Z,60.80
2024-01-20T11:00:56.065Z,61.05
2024-01-20T11:03:23.416Z,62.35
2024-01-20T11:05:50.070Z,61.94
2024-01-20T11:08:25.188Z,61.98
2024-01-20T11:10:54.513Z,61.89
2024-01-20T11:13:24.824Z,61.75
2024-01-20T11:15:52.448Z,61.02
2024-01-20T11:18:24.282Z,61.22
2024-01-20T11:21:17.245Z,60.57
2024-01-20T11:23:59.629Z,60.89
2024-01-20T11:26:37.415Z,61.52
2024-01-20T11:29:08.932Z,60.94
2024-01-20T11:31:36.028Z,60.34
2024-01-20T11:34:04.405Z,60.51
2024-01-20T11:36:32.382Z,60.69
2024-01-20T11:39:00.216Z,61.11
2024-01-20T11:41:27.917Z,59.64
2024-01-20T11:43:54.473Z,59.76
2024-01-20T11:46:21.336Z,59.50
2024-01-20T11:48:48.747Z,59.33
2024-01-20T11:51:16.493Z,60.26
2024-01-20T11:53:44.441Z,59.96
2024-01-20T11:56:10.963Z,60.07
2024-01-20T11:58:37.570Z,59.92
2024-01-20T12:01:04.588Z,60.15
2024-01-20T12:03:31.281Z,60.37
2024-01-20T12:06:05.450Z,60.43
2024-01-20T12:08:32.546Z,60.45
2024-01-20T12:10:59.121Z,60.34
2024-01-20T12:13:27.899Z,59.76
2024-01-20T12:15:55.211Z,59.33
2024-01-20T12:18:22.223Z,59.11
2024-01-20T12:20:48.964Z,59.16
2024-01-20T12:23:21.924Z,59.15
2024-01-20T12:25:55.893Z,58.67
2024-01-20T12:28:22.885Z,58.72
2024-01-20T12:30:49.939Z,59.81
2024-01-20T12:33:16.678Z,58.73
2024-01-20T12:35:43.315Z,58.38
2024-01-20T12:38:10.017Z,59.01
2024-01-20T12:40:36.617Z,59.54
2024-01-20T12:43:03.409Z,58.46
2024-01-20T12:45:29.995Z,58.76
2024-01-20T12:47:57.706Z,58.75
2024-01-20T12:50:24.357Z,58.61
2024-01-20T12:52:51.067Z,58.25
2024-01-20T12:55:17.750Z,58.61
2024-01-20T12:57:44.329Z,58.25
2024-01-20T13:00:11.786Z,58.40
2024-01-20T13:02:38.591Z,59.04
2024-01-20T13:05:05.780Z,59.12
2024-01-20T13:07:32.306Z,59.32
2024-01-20T13:09:58.974Z,59.04
2024-01-20T13:12:25.519Z,58.90
2024-01-20T13:14:52.136Z,59.29
2024-01-20T13:17:18.738Z,58.68
2024-01-20T13:19:45.412Z,59.15
2024-01-20T13:22:13.481Z,59.08
2024-01-20T13:24:40.224Z,58.28
2024-01-20T13:27:07.310Z,58.98
2024-01-20T13:29:34.733Z,59.17
2024-01-20T13:32:02.078Z,59.39
2024-01-20T13:34:28.668Z,59.51
2024-01-20T13:36:55.228Z,59.74
2024-01-20T13:39:21.872Z,59.97
2024-01-20T13:41:48.354Z,59.62
2024-01-20T13:44:14.832Z,59.74
2024-01-20T13:46:41.375Z,60.29
2024-01-20T13:49:10.307Z,61.05
2024-01-20T13:51:38.485Z,61.05
2024-01-20T13:54:05.508Z,61.02
2024-01-20T13:56:32.029Z,60.80
2024-01-20T13:58:58.479Z,60.56
2024-01-20T14:01:25.093Z,60.80
2024-01-20T14:03:52.158Z,60.21
2024-01-20T14:06:19.556Z,60.59
2024-01-20T14:08:46.274Z,60.82
2024-01-20T14:11:12.904Z,61.11
2024-01-20T14:13:39.412Z,60.72
2024-01-20T14:16:06.446Z,61.12
2024-01-20T14:18:33.114Z,61.11
2024-01-20T14:20:59.703Z,61.46
2024-01-20T14:23:26.266Z,61.55
2024-01-20T14:25:54.378Z,61.66
2024-01-20T14:28:21.097Z,62.04
2024-01-20T14:30:47.767Z,62.28
2024-01-20T14:33:14.501Z,62.78
2024-01-20T14:35:41.075Z,62.43
2024-01-20T14:38:07.565Z,62.77
2024-01-20T14:40:34.117Z,62.88
2024-01-20T14:43:01.968Z,63.27
2024-01-20T14:45:29.566Z,63.34
2024-01-20T14:47:56.225Z,63.94
2024-01-20T14:50:22.777Z,64.03
2024-01-20T14:52:49.404Z,64.18
2024-01-20T14:55:16.037Z,64.53
2024-01-20T14:57:44.514Z,64.76
2024-01-20T15:00:11.674Z,65.12
2024-01-20T15:02:38.235Z,65.34
2024-01-20T15:05:05.403Z,65.51
2024-01-20T15:07:34.796Z,65.30
2024-01-20T15:10:02.124Z,65.50
2024-01-20T15:12:28.767Z,65.97
2024-01-20T15:14:56.881Z,66.27
2024-01-20T15:17:23.706Z,66.20
2024-01-20T15:19:50.612Z,66.15
2024-01-20T15:22:18.620Z,66.47
2024-01-20T15:24:45.693Z,66.53
2024-01-20T15:27:12.564Z,66.63
2024-01-20T15:29:39.176Z,66.92
2024-01-20T15:32:06.196Z,67.45
2024-01-20T15:34:32.916Z,67.49
2024-01-20T15:36:59.622Z,67.57
2024-01-20T15:39:26.302Z,68.22
2024-01-20T15:41:53.432Z,68.02
2024-01-20T15:44:20.058Z,67.89
2024-01-20T15:46:46.736Z,68.31
2024-01-20T15:49:14.929Z,67.76
2024-01-20T15:51:42.288Z,67.83
2024-01-20T15:54:09.611Z,68.46
2024-01-20T15:56:41.936Z,68.72
2024-01-20T15:59:08.450Z,68.13
2024-01-20T16:01:35.105Z,68.34
2024-01-20T16:04:01.766Z,68.34
2024-01-20T16:06:28.414Z,68.55
2024-01-20T16:08:57.672Z,68.95
2024-01-20T16:11:24.357Z,69.25
2024-01-20T16:13:50.924Z,69.09
2024-01-20T16:16:17.476Z,68.95
2024-01-20T16:18:44.091Z,68.85
2024-01-20T16:21:10.710Z,68.95
2024-01-20T16:23:37.276Z,69.21
2024-01-20T16:26:04.200Z,69.41
2024-01-20T16:28:33.264Z,69.86
2024-01-20T16:31:00.358Z,69.53
2024-01-20T16:33:26.988Z,69.85
2024-01-20T16:35:53.550Z,69.97
2024-01-20T16:38:20.331Z,69.46
2024-01-20T16:40:46.851Z,69.01
2024-01-20T16:43:13.569Z,69.95
2024-01-20T16:45:40.162Z,69.33
2024-01-20T16:48:07.198Z,69.50
2024-01-20T16:50:33.780Z,69.09
2024-01-20T16:53:03.565Z,69.45
2024-01-20T16:55:30.147Z,68.96
2024-01-20T16:57:57.876Z,68.76
2024-01-20T17:00:24.461Z,68.30
2024-01-20T17:02:51.063Z,68.10
2024-01-20T17:05:18.343Z,68.04
2024-01-20T17:07:46.580Z,68.14
2024-01-20T17:10:14.655Z,68.29
2024-01-20T17:12:41.653Z,68.32
2024-01-20T17:15:09.610Z,68.39
2024-01-20T17:17:37.061Z,68.33
2024-01-20T17:20:05.038Z,68.25
2024-01-20T17:22:31.815Z,68.55
2024-01-20T17:24:58.315Z,68.14
2024-01-20T17:27:24.830Z,67.76
2024-01-20T17:29:51.415Z,68.32
2024-01-20T17:32:17.977Z,68.40
2024-01-20T17:34:44.657Z,68.62
2024-01-20T17:37:11.231Z,68.09
2024-01-20T17:39:39.058Z,68.24
2024-01-20T17:42:06.232Z,68.46
2024-01-20T17:44:33.544Z,68.24
2024-01-20T17:47:00.618Z,68.06
2024-01-20T17:49:27.409Z,68.44
2024-01-20T17:51:54.113Z,67.92
2024-01-20T17:54:23.640Z,68.13
2024-01-20T17:56:52.140Z,68.46
2024-01-20T17:59:18.641Z,68.34
2024-01-20T18:01:45.421Z,68.13
2024-01-20T18:04:12.087Z,68.35
2024-01-20T18:06:41.133Z,68.26
2024-01-20T18:09:07.757Z,68.19
2024-01-20T18:11:34.313Z,67.87
2024-01-20T18:14:00.909Z,67.75
2024-01-20T18:16:27.454Z,68.46
2024-01-20T18:18:54.202Z,67.92
2024-01-20T18:21:20.938Z,67.82
2024-01-20T18:23:47.464Z,68.06
2024-01-20T18:26:14.067Z,67.98
2024-01-20T18:28:40.600Z,68.23
2024-01-20T18:31:08.614Z,67.59
2024-01-20T18:33:36.131Z,67.96
2024-01-20T18:36:06.091Z,67.84
2024-01-20T18:38:32.640Z,67.88
2024-01-20T18:40:59.877Z,67.67
2024-01-20T18:43:26.485Z,67.27
2024-01-20T18:45:53.002Z,67.66
2024-01-20T18:48:19.641Z,67.40
2024-01-20T18:50:46.262Z,67.21
2024-01-20T18:53:13.923Z,67.42
2024-01-20T18:55:43.994Z,67.55
2024-01-20T18:58:12.133Z,67.61
2024-01-20T19:00:41.108Z,67.09
2024-01-20T19:03:08.542Z,67.48
2024-01-20T19:05:35.153Z,67.50
2024-01-20T19:08:01.723Z,67.76
2024-01-20T19:10:31.060Z,67.56
2024-01-20T19:12:57.735Z,67.56
2024-01-20T19:15:24.372Z,67.74
2024-01-20T19:17:51.265Z,67.92
2024-01-20T19:20:23.317Z,68.03
2024-01-20T19:22:50.628Z,67.74
2024-01-20T19:25:17.203Z,67.46
2024-01-20T19:27:44.015Z,67.79
2024-01-20T19:30:10.969Z,67.64
2024-01-20T19:32:37.662Z,67.67
2024-01-20T19:35:04.443Z,67.27
2024-01-20T19:37:31.257Z,67.72
2024-01-20T19:39:57.731Z,67.30
2024-01-20T19:42:24.277Z,67.11
2024-01-20T19:44:52.146Z,67.57
2024-01-20T19:47:19.180Z,67.09
2024-01-20T19:49:46.034Z,67.63
2024-01-20T19:52:12.671Z,67.16
2024-01-20T19:54:39.227Z,67.46
2024-01-20T19:57:06.030Z,67.78
2024-01-20T19:59:32.597Z,68.67
2024-01-20T20:01:59.155Z,68.50
2024-01-20T20:04:25.768Z,68.52
2024-01-20T20:06:52.647Z,68.52
2024-01-20T20:09:21.160Z,69.28
2024-01-20T20:11:48.161Z,69.57
2024-01-20T20:14:14.853Z,69.08
2024-01-20T20:16:41.804Z,69.32
2024-01-20T20:19:09.130Z,69.39
2024-01-20T20:21:35.768Z,69.41
2024-01-20T20:24:02.320Z,69.52
2024-01-20T20:26:28.943Z,69.68
2024-01-20T20:28:55.420Z,70.20
2024-01-20T20:31:23.540Z,70.14
2024-01-20T20:33:50.483Z,70.27
2024-01-20T20:36:20.098Z,70.58
2024-01-20T20:38:47.053Z,71.02
2024-01-20T20:41:13.534Z,71.69
2024-01-20T20:43:40.016Z,71.40
2024-01-20T20:46:06.645Z,70.94
2024-01-20T20:48:33.333Z,71.13
2024-01-20T20:50:59.938Z,70.31
2024-01-20T20:53:26.557Z,68.90
2024-01-20T20:55:53.089Z,68.82
2024-01-20T20:58:19.564Z,68.99
2024-01-20T21:00:46.147Z,69.08
2024-01-20T21:03:12.821Z,69.17
2024-01-20T21:05:39.797Z,69.03
2024-01-20T21:08:06.921Z,69.34
2024-01-20T21:10:33.575Z,69.40
2024-01-20T21:13:00.829Z,69.38
2024-01-20T21:15:27.588Z,69.72
2024-01-20T21:17:54.306Z,70.15
2024-01-20T21:20:21.171Z,70.79
2024-01-20T21:22:47.838Z,70.22
2024-01-20T21:25:14.802Z,70.01
2024-01-20T21:27:41.598Z,69.74
2024-01-20T21:30:08.839Z,69.69
2024-01-20T21:32:35.608Z,69.84
2024-01-20T21:35:02.946Z,70.19
2024-01-20T21:37:29.615Z,69.99
2024-01-20T21:39:56.164Z,70.01
2024-01-20T21:42:22.768Z,70.12
2024-01-20T21:44:49.442Z,69.96
2024-01-20T21:47:16.013Z,70.22
2024-01-20T21:49:42.607Z,70.12
2024-01-20T21:52:09.135Z,69.82
2024-01-20T21:54:35.834Z,69.98
2024-01-20T21:57:02.461Z,70.07
2024-01-20T21:59:29.043Z,70.37
2024-01-20T22:01:55.543Z,70.43
2024-01-20T22:04:22.371Z,70.53
2024-01-20T22:06:51.136Z,70.91
2024-01-20T22:09:18.090Z,70.74
2024-01-20T22:11:44.745Z,71.33
2024-01-20T22:14:11.243Z,71.49
2024-01-20T22:16:37.765Z,72.57
2024-01-20T22:19:04.352Z,72.81
2024-01-20T22:21:31.006Z,72.97
2024-01-20T22:23:57.697Z,73.15
2024-01-20T22:26:24.244Z,72.80
2024-01-20T22:28:51.352Z,72.31
2024-01-20T22:31:19.646Z,72.59
2024-01-20T22:33:46.207Z,72.56
2024-01-20T22:36:12.876Z,72.71
2024-01-20T22:38:39.575Z,72.56
2024-01-20T22:41:06.350Z,72.57
2024-01-20T22:43:32.856Z,72.07
2024-01-20T22:45:59.664Z,71.85
2024-01-20T22:48:26.588Z,71.78
2024-01-20T22:50:55.528Z,71.80
2024-01-20T22:53:21.965Z,71.20
2024-01-20T22:55:48.447Z,71.12
2024-01-20T22:58:14.988Z,71.24
2024-01-20T23:00:41.977Z,71.35
2024-01-20T23:03:08.640Z,71.33
2024-01-20T23:05:35.253Z,71.05
2024-01-20T23:08:01.743Z,71.26
2024-01-20T23:10:28.192Z,70.79
2024-01-20T23:12:54.816Z,70.70
2024-01-20T23:15:21.392Z,70.84
2024-01-20T23:17:47.975Z,71.18
2024-01-20T23:20:15.937Z,71.03
2024-01-20T23:22:42.589Z,71.30
2024-01-20T23:25:10.455Z,71.24
2024-01-20T23:27:37.407Z,71.23
2024-01-20T23:30:04.324Z,71.55
2024-01-20T23:32:31.120Z,71.41
2024-01-20T23:34:58.107Z,71.17
2024-01-20T23:37:24.929Z,71.57
2024-01-20T23:39:51.549Z,71.38
2024-01-20T23:42:18.132Z,72.04
2024-01-20T23:44:44.639Z,72.15
2024-01-20T23:47:11.151Z,72.30
2024-01-20T23:49:37.826Z,72.08
2024-01-20T23:52:05.010Z,71.82
2024-01-20T23:54:31.600Z,72.11
2024-01-20T23:56:58.106Z,72.01
2024-01-20T23:59:24.573Z,72.19
